ROKJ(METAR)
02/18 15:00
ROKJ 180600Z 11017KT 9999 SCT023 BKN034 22/17 Q1018 RMK A3007=
戻る
トップページへ戻る
IMOC Co,.Ltd.